Time;durP1;ratioP1;P1;durP2;ratioP2;P2;SDS_P1;SDS_P2;PMS_P1;PMS_P2;Temp;Humidity;BMP_temperature;BMP_pressure;BME280_temperature;BME280_humidity;BME280_pressure;Samples;Min_cycle;Max_cycle;Signal;HPM_P1;HPM_P2
2021/05/18 00:01:44;;;;;;;2.33;1.40;;;;;;;;;;5081770;28;20032;-69
2021/05/18 00:04:10;;;;;;;3.90;1.48;;;;;;;;;;5076987;28;20039;-69
2021/05/18 00:06:36;;;;;;;1.67;1.20;;;;;;;;;;5070754;28;20032;-69
2021/05/18 00:11:48;;;;;;;1.92;1.10;;;;;;;;;;5073997;28;20063;-67
2021/05/18 00:14:18;;;;;;;1.35;1.25;;;;;;;;;;5069573;28;20016;-69
2021/05/18 00:16:45;;;;;;;2.53;1.45;;;;;;;;;;5087502;28;20413;-68
2021/05/18 00:19:11;;;;;;;3.28;1.02;;;;;;;;;;5082802;28;20090;-68
2021/05/18 00:21:37;;;;;;;1.50;0.98;;;;;;;;;;5085880;28;20036;-68
2021/05/18 00:24:03;;;;;;;2.15;1.00;;;;;;;;;;5078054;28;20046;-69
2021/05/18 00:26:29;;;;;;;2.05;1.48;;;;;;;;;;5077151;28;20056;-68
2021/05/18 00:28:55;;;;;;;2.85;1.20;;;;;;;;;;5076062;28;20060;-68
2021/05/18 00:31:21;;;;;;;2.63;1.30;;;;;;;;;;5076565;28;20089;-68
2021/05/18 00:33:47;;;;;;;2.40;0.80;;;;;;;;;;5071022;28;20035;-67
2021/05/18 00:36:13;;;;;;;0.80;0.80;;;;;;;;;;5076948;28;20025;-68
2021/05/18 00:38:40;;;;;;;1.77;0.90;;;;;;;;;;5072022;28;20107;-68
2021/05/18 00:41:06;;;;;;;1.30;1.20;;;;;;;;;;5070136;28;20029;-69
2021/05/18 00:43:33;;;;;;;2.30;1.13;;;;;;;;;;5069763;28;20028;-68
2021/05/18 00:45:59;;;;;;;3.88;0.98;;;;;;;;;;5070092;28;20099;-68
2021/05/18 00:48:25;;;;;;;1.05;0.95;;;;;;;;;;5074798;28;20139;-68
2021/05/18 00:51:02;;;;;;;0.80;0.80;;;;;;;;;;5070300;28;20892;-68
2021/05/18 00:53:28;;;;;;;;;;;;;;;;;;5075321;28;20450;-68
2021/05/18 00:56:05;;;;;;;0.83;0.83;;;;;;;;;;5082885;28;20002;-69
2021/05/18 00:58:39;;;;;;;1.10;1.02;;;;;;;;;;5089410;28;20125;-67
2021/05/18 01:01:05;;;;;;;3.05;1.00;;;;;;;;;;5080862;28;20540;-69
2021/05/18 01:03:31;;;;;;;0.80;0.80;;;;;;;;;;5077509;28;20028;-67
2021/05/18 01:08:42;;;;;;;3.33;1.10;;;;;;;;;;5083653;28;20086;-68
2021/05/18 01:11:09;;;;;;;0.82;0.82;;;;;;;;;;5079788;28;20358;-68
2021/05/18 01:13:36;;;;;;;2.00;0.85;;;;;;;;;;5081960;28;20419;-67
2021/05/18 01:16:03;;;;;;;1.20;1.05;;;;;;;;;;5084076;28;20385;-68
2021/05/18 01:18:34;;;;;;;0.90;0.90;;;;;;;;;;5069912;28;20033;-68
2021/05/18 01:21:00;;;;;;;0.90;0.80;;;;;;;;;;5071454;28;20024;-69
2021/05/18 01:23:27;;;;;;;0.73;0.70;;;;;;;;;;5069449;28;20366;-68
2021/05/18 01:25:53;;;;;;;1.93;0.80;;;;;;;;;;5071969;28;20462;-68
2021/05/18 01:28:20;;;;;;;1.05;1.00;;;;;;;;;;5090961;28;20278;-68
2021/05/18 01:30:46;;;;;;;0.68;0.68;;;;;;;;;;5075896;28;20059;-68
2021/05/18 01:33:12;;;;;;;0.80;0.80;;;;;;;;;;5087568;28;20048;-67
2021/05/18 01:35:38;;;;;;;1.20;1.03;;;;;;;;;;5086263;28;20110;-69
2021/05/18 01:38:08;;;;;;;0.82;0.82;;;;;;;;;;5081991;28;20281;-68
2021/05/18 01:43:16;;;;;;;0.70;0.70;;;;;;;;;;5072680;28;20086;-68
2021/05/18 01:45:43;;;;;;;0.93;0.93;;;;;;;;;;5073402;28;20024;-68
2021/05/18 01:48:11;;;;;;;;;;;;;;;;;;5081074;28;20052;-69
2021/05/18 01:50:38;;;;;;;0.65;0.65;;;;;;;;;;5073216;28;19908;-69
2021/05/18 01:53:04;;;;;;;0.95;0.88;;;;;;;;;;5079843;28;20123;-69
2021/05/18 01:58:08;;;;;;;0.80;0.77;;;;;;;;;;5073628;28;20055;-68
2021/05/18 02:00:36;;;;;;;0.88;0.63;;;;;;;;;;5076712;28;20034;-68
2021/05/18 02:03:03;;;;;;;2.38;0.80;;;;;;;;;;5078198;28;20024;-69
2021/05/18 02:05:32;;;;;;;0.70;0.70;;;;;;;;;;5081583;28;20017;-68
2021/05/18 02:07:59;;;;;;;1.33;0.80;;;;;;;;;;5082309;28;20474;-68
2021/05/18 02:10:25;;;;;;;;;;;;;;;;;;5073563;28;20177;-68
2021/05/18 02:12:53;;;;;;;0.80;0.80;;;;;;;;;;5082158;28;19959;-68
2021/05/18 02:15:44;;;;;;;1.05;0.75;;;;;;;;;;5074302;28;20102;-69
2021/05/18 02:21:05;;;;;;;0.75;0.70;;;;;;;;;;5072480;28;20415;-68
2021/05/18 02:26:17;;;;;;;1.10;1.00;;;;;;;;;;5086808;28;20043;-68
2021/05/18 02:28:43;;;;;;;0.70;0.67;;;;;;;;;;5084749;28;20024;-68
2021/05/18 02:31:09;;;;;;;1.10;0.75;;;;;;;;;;5072801;28;20455;-68
2021/05/18 02:33:35;;;;;;;0.77;0.68;;;;;;;;;;5071788;28;20106;-68
2021/05/18 02:36:01;;;;;;;1.58;0.90;;;;;;;;;;5080077;28;20067;-68
2021/05/18 02:38:27;;;;;;;0.80;0.80;;;;;;;;;;5075578;28;20107;-68
2021/05/18 02:40:53;;;;;;;4.50;1.00;;;;;;;;;;5083399;28;20127;-68
2021/05/18 02:43:25;;;;;;;2.80;0.98;;;;;;;;;;5092047;28;20020;-68
2021/05/18 02:51:01;;;;;;;1.15;0.88;;;;;;;;;;5092025;28;20147;-69
2021/05/18 02:53:27;;;;;;;1.13;0.90;;;;;;;;;;5086045;28;20480;-69
2021/05/18 02:56:06;;;;;;;0.77;0.77;;;;;;;;;;5090320;28;20086;-67
2021/05/18 02:58:34;;;;;;;0.90;0.90;;;;;;;;;;5075508;28;20032;-68
2021/05/18 03:01:00;;;;;;;0.77;0.70;;;;;;;;;;5082965;28;20016;-68
2021/05/18 03:03:26;;;;;;;0.60;0.60;;;;;;;;;;5071331;28;20029;-68
2021/05/18 03:05:52;;;;;;;3.35;0.80;;;;;;;;;;5072662;28;20139;-67
2021/05/18 03:08:19;;;;;;;0.80;0.60;;;;;;;;;;5076794;28;20178;-68
2021/05/18 03:10:45;;;;;;;0.90;0.90;;;;;;;;;;5080049;28;20169;-68
2021/05/18 03:13:11;;;;;;;0.70;0.70;;;;;;;;;;5072297;28;20874;-67
2021/05/18 03:15:37;;;;;;;1.63;0.80;;;;;;;;;;5082950;28;20033;-68
2021/05/18 03:18:03;;;;;;;1.23;0.85;;;;;;;;;;5081796;28;20036;-67
2021/05/18 03:20:30;;;;;;;2.38;0.80;;;;;;;;;;5086305;28;20028;-68
2021/05/18 03:22:56;;;;;;;0.80;0.80;;;;;;;;;;5086744;28;20107;-67
2021/05/18 03:25:23;;;;;;;0.80;0.80;;;;;;;;;;5084000;28;20095;-68
2021/05/18 03:27:49;;;;;;;1.45;0.90;;;;;;;;;;5086897;28;20045;-68
2021/05/18 03:35:38;;;;;;;1.33;1.00;;;;;;;;;;5077873;28;20043;-67
2021/05/18 03:38:13;;;;;;;2.35;0.98;;;;;;;;;;5078133;28;20490;-69
2021/05/18 03:40:42;;;;;;;2.22;0.88;;;;;;;;;;5071157;28;20107;-68
2021/05/18 03:43:20;;;;;;;0.55;0.55;;;;;;;;;;5070863;28;20032;-69
2021/05/18 03:45:52;;;;;;;1.10;1.00;;;;;;;;;;5072022;28;20475;-68
2021/05/18 03:48:53;;;;;;;1.33;0.98;;;;;;;;;;5083643;28;20411;-69
2021/05/18 04:04:48;;;;;;;0.50;0.50;;;;;;;;;;5070967;28;20177;-69
2021/05/18 04:18:21;;;;;;;0.80;0.80;;;;;;;;;;5078399;28;20122;-70
2021/05/18 04:20:56;;;;;;;0.93;0.93;;;;;;;;;;5070027;28;20443;-69
2021/05/18 04:23:47;;;;;;;1.23;0.98;;;;;;;;;;5072709;28;20029;-68
2021/05/18 04:50:24;;;;;;;1.98;1.00;;;;;;;;;;5071396;28;20035;-69
2021/05/18 04:53:04;;;;;;;1.35;1.10;;;;;;;;;;5081923;28;20147;-69
2021/05/18 05:01:09;;;;;;;13.38;1.27;;;;;;;;;;5078141;28;20046;-70
2021/05/18 05:03:53;;;;;;;1.58;1.15;;;;;;;;;;5081903;28;20123;-69
2021/05/18 05:14:38;;;;;;;4.43;1.10;;;;;;;;;;5073461;28;20079;-68
2021/05/18 05:17:04;;;;;;;5.27;1.30;;;;;;;;;;5081840;28;20028;-68
2021/05/18 05:19:31;;;;;;;3.38;1.08;;;;;;;;;;5091280;28;20024;-73
2021/05/18 05:21:57;;;;;;;0.98;0.80;;;;;;;;;;5077585;28;20028;-70
2021/05/18 05:24:24;;;;;;;0.50;0.50;;;;;;;;;;5087804;28;20078;-66
2021/05/18 05:26:50;;;;;;;1.10;1.00;;;;;;;;;;5090004;28;20033;-66
2021/05/18 05:29:17;;;;;;;2.90;1.30;;;;;;;;;;5087047;28;20309;-67
2021/05/18 05:31:43;;;;;;;3.45;1.40;;;;;;;;;;5080696;28;20036;-67
2021/05/18 05:34:09;;;;;;;4.60;1.45;;;;;;;;;;5078401;28;20075;-69
2021/05/18 05:36:37;;;;;;;4.03;1.20;;;;;;;;;;5082067;28;20036;-70
2021/05/18 05:39:08;;;;;;;3.00;0.90;;;;;;;;;;5078293;28;20423;-69
2021/05/18 05:41:34;;;;;;;0.70;0.70;;;;;;;;;;5072919;28;20122;-70
2021/05/18 05:44:00;;;;;;;2.37;1.00;;;;;;;;;;5072559;28;20025;-69
2021/05/18 05:46:26;;;;;;;3.22;1.20;;;;;;;;;;5073033;28;20083;-69
2021/05/18 05:48:53;;;;;;;1.17;0.93;;;;;;;;;;5078749;28;20031;-68
2021/05/18 05:51:19;;;;;;;2.78;1.10;;;;;;;;;;5072972;28;20429;-69
2021/05/18 05:53:46;;;;;;;0.98;0.93;;;;;;;;;;5072859;28;20024;-69
2021/05/18 05:56:12;;;;;;;0.82;0.82;;;;;;;;;;5077908;28;20033;-68
2021/05/18 05:58:38;;;;;;;2.15;1.20;;;;;;;;;;5074635;28;20029;-69
2021/05/18 06:01:04;;;;;;;1.42;1.25;;;;;;;;;;5079552;28;20028;-69
2021/05/18 06:03:31;;;;;;;2.50;1.17;;;;;;;;;;5092868;28;20019;-68
2021/05/18 06:05:57;;;;;;;2.22;1.42;;;;;;;;;;5072658;28;20499;-68
2021/05/18 06:08:23;;;;;;;1.47;1.33;;;;;;;;;;5087316;28;20031;-68
2021/05/18 06:10:53;;;;;;;1.30;1.20;;;;;;;;;;5090134;28;20032;-69
2021/05/18 06:13:48;;;;;;;1.35;1.20;;;;;;;;;;5078107;28;20044;-68
2021/05/18 06:46:24;;;;;;;0.85;0.50;;;;;;;;;;5079786;28;20035;-69
2021/05/18 06:48:58;;;;;;;0.50;0.50;;;;;;;;;;5071718;28;20054;-68
2021/05/18 06:51:25;;;;;;;0.65;0.65;;;;;;;;;;5080273;28;20371;-68
2021/05/18 06:53:51;;;;;;;0.63;0.45;;;;;;;;;;5080400;28;20039;-68
2021/05/18 06:56:18;;;;;;;0.60;0.60;;;;;;;;;;5078971;28;20020;-68
2021/05/18 07:01:10;;;;;;;2.00;0.67;;;;;;;;;;5071933;28;20028;-69
2021/05/18 07:03:52;;;;;;;0.70;0.70;;;;;;;;;;5071316;28;20312;-68
2021/05/18 07:11:17;;;;;;;0.98;0.70;;;;;;;;;;5071325;28;20032;-69
2021/05/18 07:13:43;;;;;;;0.60;0.60;;;;;;;;;;5075029;28;20036;-68
2021/05/18 07:16:09;;;;;;;0.63;0.50;;;;;;;;;;5076298;28;20043;-68
2021/05/18 07:18:35;;;;;;;0.40;0.40;;;;;;;;;;5071269;28;20290;-68
2021/05/18 07:21:02;;;;;;;0.60;0.60;;;;;;;;;;5070067;28;20031;-69
2021/05/18 07:23:28;;;;;;;1.85;0.45;;;;;;;;;;5075370;28;20420;-69
2021/05/18 07:25:54;;;;;;;0.52;0.52;;;;;;;;;;5090001;28;20066;-67
2021/05/18 07:28:20;;;;;;;0.70;0.70;;;;;;;;;;5071377;28;20562;-67
2021/05/18 07:30:48;;;;;;;0.77;0.77;;;;;;;;;;5070778;28;20043;-68
2021/05/18 07:33:14;;;;;;;0.63;0.63;;;;;;;;;;5070780;28;20033;-68
2021/05/18 07:35:42;;;;;;;1.35;0.80;;;;;;;;;;5070946;28;20028;-68
2021/05/18 07:38:08;;;;;;;0.50;0.50;;;;;;;;;;5071243;28;20048;-68
2021/05/18 07:40:34;;;;;;;0.57;0.57;;;;;;;;;;5069877;28;20058;-67
2021/05/18 07:43:00;;;;;;;1.15;0.70;;;;;;;;;;5078623;28;20466;-68
2021/05/18 07:45:28;;;;;;;0.57;0.57;;;;;;;;;;5082586;28;20471;-69
2021/05/18 07:48:21;;;;;;;0.70;0.70;;;;;;;;;;5090062;28;20043;-67
2021/05/18 07:50:55;;;;;;;0.70;0.70;;;;;;;;;;5073864;28;20048;-67
2021/05/18 08:07:04;;;;;;;0.88;0.73;;;;;;;;;;5094383;28;20097;-69
2021/05/18 08:09:31;;;;;;;1.07;0.50;;;;;;;;;;5070325;28;20620;-69
2021/05/18 08:11:57;;;;;;;0.68;0.68;;;;;;;;;;5085082;28;20127;-68
2021/05/18 08:14:25;;;;;;;1.73;0.70;;;;;;;;;;5089041;28;20114;-68
2021/05/18 10:35:53;;;;;;;0.70;0.70;;;;;;;;;;5084244;28;20036;-69
2021/05/18 10:38:23;;;;;;;6.22;1.25;;;;;;;;;;5081053;28;20036;-70
2021/05/18 10:40:53;;;;;;;0.70;0.70;;;;;;;;;;5076930;28;20025;-70
2021/05/18 10:43:20;;;;;;;0.98;0.75;;;;;;;;;;5072256;28;20071;-72
2021/05/18 10:45:55;;;;;;;7.28;1.48;;;;;;;;;;5086009;28;20028;-69
2021/05/18 10:48:24;;;;;;;4.67;1.60;;;;;;;;;;5077333;28;20039;-70
2021/05/18 10:50:50;;;;;;;2.88;1.00;;;;;;;;;;5071508;28;20282;-71
2021/05/18 10:53:22;;;;;;;1.80;1.00;;;;;;;;;;5071594;28;20048;-70
2021/05/18 10:56:08;;;;;;;3.67;1.08;;;;;;;;;;5073621;28;20577;-70
2021/05/18 10:58:34;;;;;;;0.50;0.50;;;;;;;;;;5070746;28;20040;-70
2021/05/18 11:01:00;;;;;;;1.63;0.77;;;;;;;;;;5072064;28;20041;-70
2021/05/18 11:03:26;;;;;;;0.77;0.77;;;;;;;;;;5071613;28;20279;-70
2021/05/18 11:05:52;;;;;;;1.10;0.68;;;;;;;;;;5071019;28;20389;-70
2021/05/18 11:08:19;;;;;;;1.97;1.07;;;;;;;;;;5087561;28;20355;-70
2021/05/18 11:10:46;;;;;;;0.70;0.60;;;;;;;;;;5070802;28;20421;-70
2021/05/18 11:13:12;;;;;;;1.38;0.80;;;;;;;;;;5076619;28;20040;-70
2021/05/18 11:15:38;;;;;;;1.92;1.00;;;;;;;;;;5073303;28;20104;-70
2021/05/18 11:18:04;;;;;;;1.08;0.98;;;;;;;;;;5070643;28;20178;-69
2021/05/18 11:25:51;;;;;;;0.70;0.70;;;;;;;;;;5073926;28;20035;-70
2021/05/18 11:28:24;;;;;;;0.70;0.70;;;;;;;;;;5090886;28;20054;-70
2021/05/18 11:30:54;;;;;;;0.60;0.60;;;;;;;;;;5082964;28;20046;-70
2021/05/18 11:33:20;;;;;;;0.85;0.70;;;;;;;;;;5082090;28;20150;-71
2021/05/18 11:36:00;;;;;;;0.63;0.63;;;;;;;;;;5070730;28;20501;-71
2021/05/18 11:38:27;;;;;;;0.93;0.70;;;;;;;;;;5070995;28;20048;-71
2021/05/18 11:40:52;;;;;;;;;;;;;;;;;;5070712;28;20574;-70
2021/05/18 11:43:23;;;;;;;0.67;0.67;;;;;;;;;;5070789;28;19908;-70
2021/05/18 11:45:51;;;;;;;0.40;0.40;;;;;;;;;;5081832;28;20269;-71
2021/05/18 11:48:21;;;;;;;0.60;0.60;;;;;;;;;;5070381;28;20506;-69
2021/05/18 11:50:59;;;;;;;0.60;0.60;;;;;;;;;;5069694;28;20040;-71
2021/05/18 11:53:49;;;;;;;0.70;0.70;;;;;;;;;;5085455;28;20119;-70
2021/05/18 11:56:27;;;;;;;0.88;0.88;;;;;;;;;;5073221;28;20162;-70
2021/05/18 11:59:06;;;;;;;1.45;0.70;;;;;;;;;;5083759;28;20047;-70
2021/05/18 12:01:35;;;;;;;0.70;0.70;;;;;;;;;;5069437;28;20032;-70
2021/05/18 12:04:02;;;;;;;0.68;0.68;;;;;;;;;;5071111;28;20025;-69
2021/05/18 12:06:28;;;;;;;0.28;0.28;;;;;;;;;;5075636;28;20064;-71
2021/05/18 12:08:58;;;;;;;0.70;0.70;;;;;;;;;;5089332;28;20039;-69
2021/05/18 12:11:24;;;;;;;0.52;0.52;;;;;;;;;;5086161;28;20044;-69
2021/05/18 12:13:51;;;;;;;0.55;0.55;;;;;;;;;;5081920;28;20081;-70
2021/05/18 12:16:19;;;;;;;0.52;0.52;;;;;;;;;;5081493;28;20063;-70
2021/05/18 12:18:50;;;;;;;0.60;0.60;;;;;;;;;;5082052;28;20025;-70
2021/05/18 12:21:18;;;;;;;0.70;0.63;;;;;;;;;;5069971;28;20448;-69
2021/05/18 12:23:45;;;;;;;0.68;0.68;;;;;;;;;;5069882;28;20035;-70
2021/05/18 12:26:20;;;;;;;0.40;0.40;;;;;;;;;;5071392;28;20021;-70
2021/05/18 12:28:59;;;;;;;0.75;0.60;;;;;;;;;;5076698;28;20024;-70
2021/05/18 12:31:26;;;;;;;0.40;0.40;;;;;;;;;;5074124;28;20087;-70
2021/05/18 12:33:52;;;;;;;;;;;;;;;;;;5070592;28;20028;-70
2021/05/18 12:36:18;;;;;;;0.60;0.60;;;;;;;;;;5069626;28;19916;-70
2021/05/18 12:38:44;;;;;;;0.45;0.45;;;;;;;;;;5073888;28;20194;-70
2021/05/18 12:41:10;;;;;;;0.70;0.70;;;;;;;;;;5077086;28;20044;-70
2021/05/18 12:43:42;;;;;;;0.80;0.45;;;;;;;;;;5081353;28;20063;-69
2021/05/18 12:46:12;;;;;;;0.50;0.50;;;;;;;;;;5073192;28;20498;-70
2021/05/18 12:48:39;;;;;;;0.40;0.40;;;;;;;;;;5081105;28;20028;-69
2021/05/18 12:51:22;;;;;;;0.50;0.50;;;;;;;;;;5082380;28;20035;-70
2021/05/18 12:53:48;;;;;;;0.50;0.50;;;;;;;;;;5068221;28;20553;-70
2021/05/18 12:56:30;;;;;;;0.60;0.60;;;;;;;;;;5069752;28;20032;-70
2021/05/18 12:59:06;;;;;;;0.50;0.50;;;;;;;;;;5076752;28;20483;-70
2021/05/18 13:01:42;;;;;;;0.73;0.73;;;;;;;;;;5092935;28;20472;-69
2021/05/18 13:04:09;;;;;;;0.43;0.43;;;;;;;;;;5074222;28;20055;-70
2021/05/18 13:06:37;;;;;;;;;;;;;;;;;;5070839;28;20036;-70
2021/05/18 13:09:15;;;;;;;0.55;0.55;;;;;;;;;;5070854;28;19912;-69
2021/05/18 13:14:26;;;;;;;0.50;0.50;;;;;;;;;;5071968;28;20532;-71
2021/05/18 13:16:52;;;;;;;1.15;0.70;;;;;;;;;;5069706;28;20029;-71
2021/05/18 13:19:19;;;;;;;0.40;0.40;;;;;;;;;;5076215;28;20028;-70
2021/05/18 13:21:48;;;;;;;;;;;;;;;;;;5087103;28;20150;-71
2021/05/18 13:26:47;;;;;;;0.60;0.60;;;;;;;;;;5084817;28;20078;-71
2021/05/18 13:29:19;;;;;;;0.80;0.53;;;;;;;;;;5084996;28;20043;-70
2021/05/18 13:31:46;;;;;;;1.08;0.73;;;;;;;;;;5092623;28;20074;-70
2021/05/18 13:34:12;;;;;;;0.68;0.68;;;;;;;;;;5084313;28;20533;-71
2021/05/18 13:36:38;;;;;;;0.50;0.50;;;;;;;;;;5082313;28;20072;-71
2021/05/18 13:39:06;;;;;;;0.40;0.40;;;;;;;;;;5084775;28;20601;-71
2021/05/18 13:41:33;;;;;;;0.95;0.77;;;;;;;;;;5076848;28;20056;-71
2021/05/18 13:43:59;;;;;;;;;;;;;;;;;;5082588;28;20476;-71
2021/05/18 13:46:25;;;;;;;0.40;0.40;;;;;;;;;;5078092;28;19909;-71
2021/05/18 13:48:51;;;;;;;0.77;0.77;;;;;;;;;;5073572;28;20033;-71
2021/05/18 13:51:17;;;;;;;0.60;0.60;;;;;;;;;;5087638;28;20115;-71
2021/05/18 13:53:43;;;;;;;0.60;0.60;;;;;;;;;;5087773;28;20123;-70
2021/05/18 13:56:12;;;;;;;1.25;0.57;;;;;;;;;;5080813;28;20386;-71
2021/05/18 13:58:38;;;;;;;0.93;0.55;;;;;;;;;;5072618;28;20051;-71
2021/05/18 14:01:08;;;;;;;0.65;0.65;;;;;;;;;;5073126;28;20027;-71
2021/05/18 14:03:34;;;;;;;0.70;0.57;;;;;;;;;;5073029;28;20037;-71
2021/05/18 14:06:00;;;;;;;0.60;0.60;;;;;;;;;;5073357;28;20392;-71
2021/05/18 14:10:57;;;;;;;0.60;0.60;;;;;;;;;;5072762;28;20500;-71
2021/05/18 14:13:24;;;;;;;0.65;0.65;;;;;;;;;;5072603;28;20119;-71
2021/05/18 14:15:50;;;;;;;0.73;0.73;;;;;;;;;;5072250;28;20136;-71
2021/05/18 14:18:17;;;;;;;0.60;0.60;;;;;;;;;;5072205;28;20067;-71
2021/05/18 14:20:43;;;;;;;0.60;0.55;;;;;;;;;;5071789;28;20035;-71
2021/05/18 14:23:09;;;;;;;0.70;0.70;;;;;;;;;;5072366;28;20414;-70
2021/05/18 14:25:36;;;;;;;0.60;0.60;;;;;;;;;;5079636;28;20510;-71
2021/05/18 14:28:02;;;;;;;0.40;0.40;;;;;;;;;;5080447;28;20021;-70
2021/05/18 14:30:29;;;;;;;0.57;0.57;;;;;;;;;;5072313;28;20068;-71
2021/05/18 14:32:57;;;;;;;0.65;0.65;;;;;;;;;;5075026;28;20064;-70
2021/05/18 14:35:23;;;;;;;0.30;0.30;;;;;;;;;;5089189;28;20519;-70
2021/05/18 14:37:57;;;;;;;0.73;0.70;;;;;;;;;;5079689;28;20044;-70
2021/05/18 14:43:57;;;;;;;1.23;0.88;;;;;;;;;;5060007;28;20066;-71
2021/05/18 14:46:32;;;;;;;0.40;0.40;;;;;;;;;;5063094;28;20571;-69
2021/05/18 14:57:05;;;;;;;0.60;0.60;;;;;;;;;;5080604;28;20050;-69
2021/05/18 14:59:32;;;;;;;3.92;1.13;;;;;;;;;;5089608;28;20024;-67
2021/05/18 15:01:58;;;;;;;0.82;0.73;;;;;;;;;;5077292;28;20077;-66
2021/05/18 15:04:24;;;;;;;1.85;0.60;;;;;;;;;;5075616;28;20024;-69
2021/05/18 15:06:50;;;;;;;0.50;0.50;;;;;;;;;;5079992;28;20031;-68
2021/05/18 15:09:16;;;;;;;1.10;0.90;;;;;;;;;;5078043;28;20037;-68
2021/05/18 15:11:42;;;;;;;0.70;0.70;;;;;;;;;;5077130;28;20039;-69
2021/05/18 15:14:08;;;;;;;1.37;0.90;;;;;;;;;;5072587;28;20549;-69
2021/05/18 15:16:34;;;;;;;1.50;0.77;;;;;;;;;;5076274;28;20024;-70
2021/05/18 15:19:09;;;;;;;0.57;0.57;;;;;;;;;;5071671;28;20043;-71
2021/05/18 15:21:36;;;;;;;1.10;0.70;;;;;;;;;;5069528;28;20048;-71
2021/05/18 15:24:02;;;;;;;1.23;0.73;;;;;;;;;;5070200;28;20025;-71
2021/05/18 15:26:28;;;;;;;0.57;0.57;;;;;;;;;;5078023;28;20019;-71
2021/05/18 15:28:54;;;;;;;0.70;0.70;;;;;;;;;;5078983;28;20429;-70
2021/05/18 15:31:20;;;;;;;1.00;0.55;;;;;;;;;;5070799;28;20020;-71
2021/05/18 15:33:46;;;;;;;1.20;0.70;;;;;;;;;;5069519;28;20059;-71
2021/05/18 15:36:13;;;;;;;0.82;0.68;;;;;;;;;;5070598;28;20160;-70
2021/05/18 15:38:39;;;;;;;0.68;0.68;;;;;;;;;;5070580;28;20495;-70
2021/05/18 15:41:09;;;;;;;1.13;0.80;;;;;;;;;;5070804;28;20024;-71
2021/05/18 15:43:35;;;;;;;1.75;0.68;;;;;;;;;;5070734;28;20081;-71
2021/05/18 15:46:02;;;;;;;1.20;0.75;;;;;;;;;;5077317;28;20024;-71
2021/05/18 15:48:28;;;;;;;0.50;0.50;;;;;;;;;;5070599;28;20128;-71
2021/05/18 15:50:54;;;;;;;0.70;0.70;;;;;;;;;;5070186;28;20485;-70
2021/05/18 15:53:20;;;;;;;0.47;0.47;;;;;;;;;;5073481;28;20044;-70
2021/05/18 15:55:46;;;;;;;1.70;0.70;;;;;;;;;;5073560;28;20028;-70
2021/05/18 15:58:12;;;;;;;0.65;0.57;;;;;;;;;;5072715;28;20032;-69
2021/05/18 16:00:38;;;;;;;7.82;1.33;;;;;;;;;;5080829;28;20036;-69
2021/05/18 16:03:04;;;;;;;4.63;1.00;;;;;;;;;;5071601;28;20417;-68
2021/05/18 16:05:30;;;;;;;133.65;8.60;;;;;;;;;;5084273;28;20190;-70
2021/05/18 16:08:58;;;;;;;5.97;1.38;;;;;;;;;;5073517;28;20123;-67
2021/05/18 16:10:55;;;;;;;2.08;0.90;;;;;;;;;;5085270;28;20055;-67
2021/05/18 16:13:22;;;;;;;4.95;1.30;;;;;;;;;;5069898;28;20058;-67
2021/05/18 16:15:48;;;;;;;8.80;1.70;;;;;;;;;;5076159;28;20035;-67
2021/05/18 16:18:14;;;;;;;2.97;1.00;;;;;;;;;;5080362;28;20039;-68
2021/05/18 16:20:41;;;;;;;1.70;0.98;;;;;;;;;;5079892;28;20032;-67
2021/05/18 16:23:07;;;;;;;3.00;1.05;;;;;;;;;;5083501;28;20043;-68
2021/05/18 16:25:33;;;;;;;2.15;0.82;;;;;;;;;;5084022;28;20035;-68
2021/05/18 16:27:59;;;;;;;6.47;0.90;;;;;;;;;;5078742;28;20023;-68
2021/05/18 16:30:25;;;;;;;1.90;1.08;;;;;;;;;;5078370;28;20047;-68
2021/05/18 16:32:50;;;;;;;1.00;0.90;;;;;;;;;;5076872;28;20445;-68
2021/05/18 16:35:16;;;;;;;1.38;0.90;;;;;;;;;;5072893;28;20090;-68
2021/05/18 16:37:43;;;;;;;1.65;1.08;;;;;;;;;;5082883;28;20514;-69
2021/05/18 16:40:10;;;;;;;0.77;0.60;;;;;;;;;;5073174;28;20052;-67
2021/05/18 16:42:37;;;;;;;3.28;1.38;;;;;;;;;;5073714;28;20036;-69
2021/05/18 16:45:07;;;;;;;1.88;1.02;;;;;;;;;;5078234;28;20115;-69
2021/05/18 16:47:33;;;;;;;1.45;1.02;;;;;;;;;;5075896;28;20036;-69
2021/05/18 16:49:59;;;;;;;4.88;1.13;;;;;;;;;;5073978;28;20048;-69
2021/05/18 16:52:25;;;;;;;4.28;1.15;;;;;;;;;;5069434;28;20035;-69
2021/05/18 16:54:51;;;;;;;2.88;1.17;;;;;;;;;;5081340;28;20028;-70
2021/05/18 16:57:17;;;;;;;1.03;0.90;;;;;;;;;;5075321;28;20055;-69
2021/05/18 16:59:43;;;;;;;1.85;0.98;;;;;;;;;;5074919;28;20274;-70
2021/05/18 17:02:09;;;;;;;1.30;0.80;;;;;;;;;;5087324;28;20043;-70
2021/05/18 17:04:35;;;;;;;0.90;0.75;;;;;;;;;;5075153;28;20550;-69
2021/05/18 17:07:02;;;;;;;1.25;1.00;;;;;;;;;;5086098;28;20118;-71
2021/05/18 17:09:29;;;;;;;2.30;0.85;;;;;;;;;;5079858;28;20097;-69
2021/05/18 17:11:55;;;;;;;1.55;0.85;;;;;;;;;;5082113;28;20051;-70
2021/05/18 17:14:23;;;;;;;1.48;0.90;;;;;;;;;;5076864;28;20052;-68
2021/05/18 17:16:49;;;;;;;1.05;0.95;;;;;;;;;;5072901;28;20493;-68
2021/05/18 17:19:15;;;;;;;2.05;1.10;;;;;;;;;;5085813;28;20391;-69
2021/05/18 17:21:41;;;;;;;2.15;0.73;;;;;;;;;;5088569;28;20028;-70
2021/05/18 17:24:08;;;;;;;2.72;1.15;;;;;;;;;;5077673;28;20028;-69
2021/05/18 17:26:34;;;;;;;2.30;1.30;;;;;;;;;;5075345;28;20058;-70
2021/05/18 17:29:00;;;;;;;1.23;1.13;;;;;;;;;;5091324;28;20497;-69
2021/05/18 17:31:26;;;;;;;4.53;1.27;;;;;;;;;;5089192;28;20027;-69
2021/05/18 17:33:53;;;;;;;1.08;0.90;;;;;;;;;;5078450;28;20056;-70
2021/05/18 17:36:19;;;;;;;2.20;1.13;;;;;;;;;;5078055;28;20078;-69
2021/05/18 17:38:45;;;;;;;2.15;1.13;;;;;;;;;;5075732;28;20028;-71
2021/05/18 17:41:11;;;;;;;2.38;1.20;;;;;;;;;;5076136;28;20097;-70
2021/05/18 17:43:37;;;;;;;1.92;1.02;;;;;;;;;;5083078;28;20035;-70
2021/05/18 17:46:06;;;;;;;2.45;1.13;;;;;;;;;;5085620;28;20048;-70
2021/05/18 17:48:32;;;;;;;1.02;0.88;;;;;;;;;;5074900;28;20082;-71
2021/05/18 17:50:58;;;;;;;1.17;1.02;;;;;;;;;;5077865;28;20028;-71
2021/05/18 17:53:24;;;;;;;2.03;1.15;;;;;;;;;;5082207;28;20031;-68
2021/05/18 17:55:50;;;;;;;1.48;1.30;;;;;;;;;;5076102;28;20025;-70
2021/05/18 17:58:16;;;;;;;3.45;1.38;;;;;;;;;;5073564;28;20032;-68
2021/05/18 18:00:43;;;;;;;3.80;1.40;;;;;;;;;;5082623;28;20034;-70
2021/05/18 18:03:08;;;;;;;4.22;1.90;;;;;;;;;;5082265;28;20020;-71
2021/05/18 18:05:35;;;;;;;3.33;1.85;;;;;;;;;;5080891;28;20036;-72
2021/05/18 18:08:01;;;;;;;3.33;1.50;;;;;;;;;;5081673;28;20040;-71
2021/05/18 18:10:29;;;;;;;1.92;1.70;;;;;;;;;;5075789;28;20029;-72
2021/05/18 18:12:56;;;;;;;1.83;1.40;;;;;;;;;;5082594;28;20398;-71
2021/05/18 18:15:22;;;;;;;1.55;1.33;;;;;;;;;;5079995;28;20032;-71
2021/05/18 18:17:48;;;;;;;2.50;1.60;;;;;;;;;;5074948;28;20032;-70
2021/05/18 18:20:14;;;;;;;1.73;1.33;;;;;;;;;;5089404;28;20028;-69
2021/05/18 18:22:41;;;;;;;4.15;1.60;;;;;;;;;;5087616;28;20038;-69
2021/05/18 18:25:07;;;;;;;2.13;1.20;;;;;;;;;;5077773;28;20078;-71
2021/05/18 18:27:33;;;;;;;2.63;1.45;;;;;;;;;;5078265;28;20063;-72
2021/05/18 18:30:00;;;;;;;2.72;1.30;;;;;;;;;;5075758;28;20039;-71
2021/05/18 18:32:26;;;;;;;1.77;1.30;;;;;;;;;;5073626;28;20173;-70
2021/05/18 18:34:52;;;;;;;2.38;1.40;;;;;;;;;;5079972;28;20032;-71
2021/05/18 18:37:18;;;;;;;2.67;1.50;;;;;;;;;;5087409;28;20047;-71
2021/05/18 18:39:45;;;;;;;2.05;1.23;;;;;;;;;;5071683;28;20033;-71
2021/05/18 18:42:11;;;;;;;2.75;1.30;;;;;;;;;;5084515;28;20031;-71
2021/05/18 18:44:37;;;;;;;2.03;1.30;;;;;;;;;;5069998;28;20025;-70
2021/05/18 18:47:05;;;;;;;4.20;1.60;;;;;;;;;;5082576;28;20054;-73
2021/05/18 18:49:39;;;;;;;3.85;1.40;;;;;;;;;;5074682;28;20590;-70
2021/05/18 18:52:07;;;;;;;4.35;1.48;;;;;;;;;;5073105;28;20028;-72
2021/05/18 18:54:33;;;;;;;1.98;1.27;;;;;;;;;;5077479;28;20032;-70
2021/05/18 18:56:59;;;;;;;1.52;1.30;;;;;;;;;;5074733;28;20016;-71
2021/05/18 18:59:25;;;;;;;3.17;1.63;;;;;;;;;;5074952;28;20045;-71
2021/05/18 19:01:58;;;;;;;1.75;1.30;;;;;;;;;;5076562;28;20040;-70
2021/05/18 19:04:27;;;;;;;1.95;1.60;;;;;;;;;;5081364;28;20396;-70
2021/05/18 19:07:31;;;;;;;2.88;1.30;;;;;;;;;;5085516;28;20051;-70
2021/05/18 19:14:37;;;;;;;1.88;1.77;;;;;;;;;;5070499;28;20036;-72
2021/05/18 19:17:03;;;;;;;3.13;1.80;;;;;;;;;;5076877;28;20025;-70
2021/05/18 19:19:29;;;;;;;2.00;1.50;;;;;;;;;;5087833;28;20102;-68
2021/05/18 19:21:56;;;;;;;2.33;1.60;;;;;;;;;;5086968;28;20035;-69
2021/05/18 19:24:22;;;;;;;2.53;1.58;;;;;;;;;;5077058;28;20032;-69
2021/05/18 19:26:49;;;;;;;3.58;1.40;;;;;;;;;;5081871;28;20027;-68
2021/05/18 19:29:15;;;;;;;2.72;1.63;;;;;;;;;;5070680;28;20048;-69
2021/05/18 19:31:41;;;;;;;2.35;1.45;;;;;;;;;;5078636;28;20040;-71
2021/05/18 19:34:10;;;;;;;3.33;1.40;;;;;;;;;;5079540;28;20044;-72
2021/05/18 19:42:39;;;;;;;6.88;1.70;;;;;;;;;;5073507;28;20043;-73
2021/05/18 19:50:38;;;;;;;10.27;1.98;;;;;;;;;;5075165;28;20063;-66
2021/05/18 19:52:49;;;;;;;8.85;2.08;;;;;;;;;;5070217;28;20083;-66
2021/05/18 19:55:23;;;;;;;6.57;2.50;;;;;;;;;;5073140;28;20170;-66
2021/05/18 19:57:54;;;;;;;6.78;1.80;;;;;;;;;;5072546;28;20115;-65
2021/05/18 20:22:05;;;;;;;3.10;1.63;;;;;;;;;;5077077;28;20046;-70
2021/05/18 20:24:32;;;;;;;2.83;1.70;;;;;;;;;;5070384;28;20033;-69
2021/05/18 20:26:58;;;;;;;3.55;1.60;;;;;;;;;;5079928;28;20016;-70
2021/05/18 20:29:24;;;;;;;2.67;1.50;;;;;;;;;;5075966;28;20036;-70
2021/05/18 20:31:50;;;;;;;3.00;1.65;;;;;;;;;;5080597;28;20070;-71
2021/05/18 20:34:32;;;;;;;2.47;1.58;;;;;;;;;;5070755;28;20376;-70